Colton, Washington
Current Conditions -  °F | °C
As of 3:53 PM on Wednesday 22 Oct 2014 (Local Time) from KPUW Reporting Station
Overcast Overcast  
Wind Chill: 62°   Ceiling: 6000
Heat Index: 62°   Visibility: 10mi
Dew Point: 36°   Wind: 13mph
Humidity: 38%   Direction: 150°SSE
Pressure: 29.86"   Gusts: NA
Location:  46.57°N, 117.13°W
Report Text: KPUW 222253Z AUTO 15011KT 10SM OVC060 17/02 A2986 RMK AO2 SLP113 T01670022
Loading
Personal Weather Stations






























Interactive Weather Map
Tropical Storm Tracking
New forecast layout! Learn more

10-Day Weather Forecast

Advertisements
Track Severe Weather on mobile